Time;durP1;ratioP1;P1;durP2;ratioP2;P2;SDS_P1;SDS_P2;PMS_P1;PMS_P2;Temp;Humidity;BMP_temperature;BMP_pressure;BME280_temperature;BME280_humidity;BME280_pressure;Samples;Min_cycle;Max_cycle;Signal;HPM_P1;HPM_P2
2022/02/05 00:01:12;;;;;;;29.42;9.05;;;12.50;56.80;;;;;;6267169;28;20021;-71
2022/02/05 00:04:15;;;;;;;;;;;12.50;56.80;;;;;;6284275;28;20060;-71
2022/02/05 00:07:16;;;;;;;20.80;9.15;;;12.50;56.80;;;;;;6262534;28;19909;-71
2022/02/05 00:40:15;;;;;;;31.77;11.57;;;12.60;56.60;;;;;;6168059;28;20038;-71
2022/02/05 00:43:17;;;;;;;;;;;12.60;56.50;;;;;;6186304;28;20042;-71
2022/02/05 00:46:19;;;;;;;26.30;11.27;;;12.70;56.50;;;;;;6156422;28;19914;-71
2022/02/05 00:49:19;;;;;;;30.50;12.63;;;12.70;56.30;;;;;;6199837;28;20040;-71
2022/02/05 00:52:21;;;;;;;22.55;10.68;;;12.70;56.90;;;;;;6260663;28;20489;-71
2022/02/05 00:55:25;;;;;;;26.10;10.70;;;12.70;56.20;;;;;;6262575;28;20036;-70
2022/02/05 00:58:26;;;;;;;23.10;10.60;;;12.70;56.30;;;;;;6277983;28;20044;-71
2022/02/05 01:01:27;;;;;;;25.98;10.27;;;12.70;56.20;;;;;;6280370;28;20264;-70
2022/02/05 01:04:28;;;;;;;25.45;10.20;;;12.60;56.20;;;;;;6273457;28;20074;-70
2022/02/05 01:07:29;;;;;;;39.67;17.20;;;12.60;56.20;;;;;;6277134;28;20104;-70
2022/02/05 01:10:30;;;;;;;42.83;20.40;;;12.60;56.30;;;;;;6276962;28;20025;-71
2022/02/05 01:13:33;;;;;;;33.30;15.60;;;12.60;56.30;;;;;;6278039;28;20017;-72
2022/02/05 01:22:46;;;;;;;25.02;11.68;;;12.50;56.50;;;;;;6275322;28;20692;-71
2022/02/05 01:25:55;;;;;;;26.02;11.57;;;12.50;56.50;;;;;;6278621;28;20036;-71
2022/02/05 01:29:01;;;;;;;20.80;10.13;;;12.50;56.60;;;;;;6265244;28;20645;-71
2022/02/05 01:32:07;;;;;;;20.48;9.60;;;12.50;56.50;;;;;;6279262;28;20017;-70
2022/02/05 01:35:31;;;;;;;18.23;9.13;;;12.50;56.50;;;;;;6261654;28;20025;-72
2022/02/05 02:11:36;;;;;;;16.98;7.25;;;12.10;56.90;;;;;;6272769;28;20433;-71
2022/02/05 02:21:25;;;;;;;16.17;7.07;;;12.10;56.80;;;;;;6254421;28;20065;-70
2022/02/05 02:24:41;;;;;;;13.60;7.30;;;12.10;56.80;;;;;;6251883;28;20041;-71
2022/02/05 02:27:52;;;;;;;15.73;8.10;;;12.10;56.70;;;;;;6227773;28;20245;-70
2022/02/05 02:31:01;;;;;;;13.35;7.93;;;12.10;56.70;;;;;;6221992;28;20043;-70
2022/02/05 02:34:07;;;;;;;17.05;7.75;;;12.10;56.70;;;;;;6236349;28;20075;-71
2022/02/05 02:37:09;;;;;;;15.32;7.80;;;12.10;56.70;;;;;;6234567;28;20026;-71
2022/02/05 02:43:23;;;;;;;12.40;6.67;;;12.10;56.70;;;;;;6256884;28;20075;-71
2022/02/05 02:46:25;;;;;;;12.05;5.75;;;12.10;56.60;;;;;;6239576;28;20436;-72
2022/02/05 02:59:29;;;;;;;12.05;6.50;;;12.20;56.40;;;;;;6275383;28;20017;-72
2022/02/05 03:02:30;;;;;;;13.63;6.88;;;12.20;56.40;;;;;;6279823;28;20052;-71
2022/02/05 03:05:31;;;;;;;15.00;7.53;;;12.20;56.40;;;;;;6277173;28;20074;-71
2022/02/05 03:08:32;;;;;;;13.23;6.60;;;12.20;56.50;;;;;;6260656;28;20059;-71
2022/02/05 03:11:33;;;;;;;15.40;7.57;;;12.20;56.50;;;;;;6276340;28;20702;-71
2022/02/05 03:14:34;;;;;;;18.23;6.25;;;12.20;56.50;;;;;;6279737;28;20020;-71
2022/02/05 03:17:42;;;;;;;15.50;6.95;;;12.20;56.50;;;;;;6279471;28;20017;-71
2022/02/05 03:20:43;;;;;;;15.17;7.30;;;12.20;56.50;;;;;;6261079;28;20037;-71
2022/02/05 03:23:44;;;;;;;11.40;6.72;;;12.20;56.50;;;;;;6257046;28;20032;-71
2022/02/05 03:26:45;;;;;;;10.05;5.78;;;12.10;56.50;;;;;;6276532;28;20025;-70
2022/02/05 03:29:48;;;;;;;18.23;8.25;;;12.20;56.60;;;;;;6247102;28;20616;-70
2022/02/05 03:32:49;;;;;;;11.77;6.15;;;12.10;56.60;;;;;;6277855;28;20029;-71
2022/02/05 03:35:50;;;;;;;12.75;6.63;;;12.10;56.60;;;;;;6275473;28;20094;-71
2022/02/05 03:38:51;;;;;;;11.68;6.53;;;12.10;56.70;;;;;;6278846;28;20049;-70
2022/02/05 03:41:52;;;;;;;10.40;5.72;;;12.10;56.70;;;;;;6259114;28;20036;-71
2022/02/05 03:44:53;;;;;;;18.08;6.90;;;12.00;56.70;;;;;;6258361;28;20033;-71
2022/02/05 03:47:54;;;;;;;14.75;6.65;;;12.00;56.70;;;;;;6276274;28;20033;-70
2022/02/05 03:50:54;;;;;;;14.98;6.90;;;12.10;56.80;;;;;;6260658;28;20115;-72
2022/02/05 03:53:56;;;;;;;14.63;6.22;;;12.10;56.80;;;;;;6272870;28;20414;-72
2022/02/05 03:56:56;;;;;;;13.75;5.93;;;12.00;56.80;;;;;;6275031;28;20024;-72
2022/02/05 03:59:58;;;;;;;13.65;6.25;;;12.00;56.80;;;;;;6284032;28;20168;-72
2022/02/05 04:03:00;;;;;;;12.77;5.38;;;12.00;56.80;;;;;;6250445;28;20139;-71
2022/02/05 04:06:01;;;;;;;14.38;6.18;;;12.00;56.90;;;;;;6261104;28;20017;-70
2022/02/05 04:09:07;;;;;;;13.20;5.93;;;12.00;56.90;;;;;;6265668;28;20109;-71
2022/02/05 04:18:55;;;;;;;10.55;5.35;;;12.00;56.90;;;;;;6281476;28;20109;-71
2022/02/05 04:21:56;;;;;;;10.73;5.57;;;12.00;56.90;;;;;;6262790;28;20039;-71
2022/02/05 04:24:57;;;;;;;10.80;5.55;;;12.00;56.90;;;;;;6280704;28;20017;-71
2022/02/05 04:27:58;;;;;;;11.48;5.32;;;12.00;56.90;;;;;;6279312;28;20063;-71
2022/02/05 04:30:59;;;;;;;10.77;5.95;;;12.00;56.90;;;;;;6252799;28;20120;-72
2022/02/05 04:34:00;;;;;;;17.40;6.28;;;11.90;56.90;;;;;;6280216;28;20017;-71
2022/02/05 04:37:04;;;;;;;13.98;6.50;;;12.00;57.00;;;;;;6279827;28;20029;-71
2022/02/05 04:40:24;;;;;;;11.23;5.22;;;11.90;57.00;;;;;;6279184;28;20028;-71
2022/02/05 05:12:14;;;;;;;11.35;5.15;;;11.90;57.20;;;;;;6281701;28;20091;-72
2022/02/05 05:21:40;;;;;;;14.43;5.65;;;11.90;57.10;;;;;;6262574;28;20154;-71
2022/02/05 05:24:42;;;;;;;12.73;5.65;;;11.90;57.00;;;;;;6277264;28;20153;-71
2022/02/05 05:27:44;;;;;;;10.10;5.30;;;12.00;57.10;;;;;;6261167;28;20055;-71
2022/02/05 05:30:45;;;;;;;9.70;5.13;;;11.90;57.00;;;;;;6275547;28;20020;-71
2022/02/05 05:33:46;;;;;;;10.10;5.22;;;11.90;57.00;;;;;;6280267;28;20434;-71
2022/02/05 05:36:47;;;;;;;9.88;5.53;;;12.00;57.50;;;;;;6261006;28;20040;-70
2022/02/05 05:39:50;;;;;;;13.20;5.95;;;12.00;56.90;;;;;;6259367;28;20043;-70
2022/02/05 05:43:00;;;;;;;12.27;5.50;;;12.00;56.90;;;;;;6279353;28;20032;-71
2022/02/05 05:46:32;;;;;;;15.93;6.47;;;12.00;57.00;;;;;;6259953;28;20123;-71
2022/02/05 05:49:56;;;;;;;11.75;5.60;;;12.00;56.90;;;;;;6249781;28;20159;-70
2022/02/05 05:52:56;;;;;;;11.43;5.72;;;11.90;56.90;;;;;;6277525;28;20021;-71
2022/02/05 05:55:58;;;;;;;15.82;5.68;;;11.90;57.00;;;;;;6259924;28;20362;-71
2022/02/05 05:59:01;;;;;;;9.85;5.30;;;11.90;57.10;;;;;;6261229;28;20043;-71
2022/02/05 06:02:03;;;;;;;16.98;6.22;;;11.80;57.10;;;;;;6261082;28;20047;-71
2022/02/05 06:05:04;;;;;;;11.23;5.00;;;11.80;57.10;;;;;;6272682;28;20138;-71
2022/02/05 06:08:05;;;;;;;9.32;4.97;;;11.80;57.20;;;;;;6277740;28;20512;-71
2022/02/05 06:11:06;;;;;;;12.30;5.90;;;11.70;57.20;;;;;;6274181;28;20057;-71
2022/02/05 06:14:07;;;;;;;12.15;5.70;;;11.70;57.30;;;;;;6277753;28;20029;-71
2022/02/05 06:17:10;;;;;;;16.77;5.75;;;11.80;57.30;;;;;;6258340;28;20021;-71
2022/02/05 06:20:11;;;;;;;11.73;4.88;;;11.80;57.40;;;;;;6276274;28;20036;-71
2022/02/05 06:23:12;;;;;;;13.23;6.13;;;11.70;57.40;;;;;;6274868;28;20033;-71
2022/02/05 06:26:13;;;;;;;14.23;6.03;;;11.70;57.40;;;;;;6279615;28;20066;-71
2022/02/05 06:29:14;;;;;;;12.60;5.60;;;11.70;57.40;;;;;;6269560;28;20032;-71
2022/02/05 06:32:17;;;;;;;15.07;6.05;;;11.70;57.50;;;;;;6278678;28;20044;-72
2022/02/05 06:35:19;;;;;;;11.48;5.03;;;11.70;57.50;;;;;;6273652;28;20039;-71
2022/02/05 06:38:20;;;;;;;11.32;5.60;;;11.70;57.50;;;;;;6276933;28;20234;-72
2022/02/05 06:41:21;;;;;;;11.68;4.72;;;11.70;57.50;;;;;;6277939;28;20020;-72
2022/02/05 06:44:22;;;;;;;14.95;6.03;;;11.60;57.50;;;;;;6268965;28;20028;-72
2022/02/05 06:47:22;;;;;;;11.05;5.07;;;11.70;57.60;;;;;;6279456;28;20115;-70
2022/02/05 06:50:23;;;;;;;11.38;5.00;;;11.70;57.60;;;;;;6275683;28;20029;-71
2022/02/05 06:53:24;;;;;;;11.45;4.90;;;11.70;57.60;;;;;;6278323;28;20578;-73
2022/02/05 06:56:25;;;;;;;9.70;5.10;;;11.70;57.60;;;;;;6274815;28;20020;-69
2022/02/05 06:59:26;;;;;;;13.00;5.88;;;11.70;57.60;;;;;;6281388;28;20090;-72
2022/02/05 07:02:27;;;;;;;14.63;5.80;;;11.70;57.60;;;;;;6276511;28;20036;-71
2022/02/05 07:05:28;;;;;;;10.77;5.15;;;11.70;57.60;;;;;;6276042;28;20064;-70
2022/02/05 07:08:29;;;;;;;8.80;5.07;;;11.70;57.60;;;;;;6259692;28;20025;-71
2022/02/05 07:11:30;;;;;;;11.32;5.45;;;11.70;57.60;;;;;;6277196;28;20017;-71
2022/02/05 07:14:37;;;;;;;7.85;4.75;;;11.80;57.60;;;;;;6278788;28;20025;-70
2022/02/05 07:18:04;;;;;;;12.18;5.28;;;11.80;57.60;;;;;;6256128;28;20413;-70
2022/02/05 07:21:19;;;;;;;12.10;5.13;;;11.80;57.60;;;;;;6275291;28;20547;-71
2022/02/05 07:30:40;;;;;;;13.25;5.32;;;11.80;57.50;;;;;;6273037;28;20032;-71
2022/02/05 07:33:41;;;;;;;15.57;5.90;;;11.80;57.50;;;;;;6249720;28;20021;-71
2022/02/05 07:36:42;;;;;;;14.02;5.38;;;11.90;57.40;;;;;;6282633;28;20131;-71
2022/02/05 07:39:48;;;;;;;11.20;4.85;;;11.90;57.30;;;;;;6267616;28;20025;-71
2022/02/05 07:42:49;;;;;;;9.93;4.28;;;12.00;57.40;;;;;;6249105;28;20021;-71
2022/02/05 07:45:50;;;;;;;9.85;5.00;;;12.00;57.40;;;;;;6265768;28;20020;-71
2022/02/05 07:48:51;;;;;;;9.40;4.40;;;12.00;57.60;;;;;;6280243;28;20045;-71
2022/02/05 07:51:52;;;;;;;8.73;4.30;;;11.90;57.90;;;;;;6262484;28;20077;-71
2022/02/05 07:54:53;;;;;;;8.10;4.70;;;11.90;58.30;;;;;;6284266;28;20024;-71
2022/02/05 07:57:54;;;;;;;8.13;4.65;;;11.90;58.90;;;;;;6279735;28;20070;-71
2022/02/05 08:00:55;;;;;;;10.07;5.10;;;11.90;59.30;;;;;;6280529;28;20021;-71
2022/02/05 08:03:55;;;;;;;8.95;4.90;;;11.90;59.50;;;;;;6261355;28;20477;-70
2022/02/05 08:06:57;;;;;;;9.65;5.13;;;11.90;59.50;;;;;;6280016;28;20017;-70
2022/02/05 08:10:02;;;;;;;8.77;4.97;;;11.90;59.50;;;;;;6282400;28;20029;-71
2022/02/05 08:13:03;;;;;;;8.25;4.53;;;12.00;59.50;;;;;;6278639;28;20028;-72
2022/02/05 08:19:34;;;;;;;10.82;5.35;;;12.10;59.50;;;;;;6205124;28;20037;-72
2022/02/05 08:22:35;;;;;;;12.27;5.18;;;12.00;59.50;;;;;;6209470;28;20514;-71
2022/02/05 08:25:36;;;;;;;10.35;5.10;;;12.10;59.60;;;;;;6202140;28;20030;-71
2022/02/05 08:28:37;;;;;;;11.57;5.45;;;12.10;59.40;;;;;;6204154;28;20104;-71
2022/02/05 08:31:38;;;;;;;11.73;5.22;;;12.00;59.20;;;;;;6209810;28;20042;-71
2022/02/05 08:34:39;;;;;;;12.63;5.78;;;12.00;59.00;;;;;;6204896;28;20034;-71
2022/02/05 08:37:45;;;;;;;8.00;3.53;;;12.00;58.90;;;;;;6195554;28;20507;-70
2022/02/05 08:40:47;;;;;;;6.63;3.30;;;12.00;59.10;;;;;;6186741;28;20157;-71
2022/02/05 08:43:49;;;;;;;8.05;3.60;;;11.90;59.20;;;;;;6204404;28;20113;-71
2022/02/05 08:46:49;;;;;;;6.22;3.30;;;11.90;59.30;;;;;;6203913;28;20197;-71
2022/02/05 08:49:55;;;;;;;5.43;2.58;;;11.90;59.40;;;;;;6195584;28;20144;-71
2022/02/05 08:52:56;;;;;;;4.40;2.50;;;11.90;59.50;;;;;;6207086;28;20025;-71
2022/02/05 08:55:58;;;;;;;5.55;2.47;;;11.90;59.50;;;;;;6246984;28;20040;-70
2022/02/05 08:58:59;;;;;;;5.38;2.80;;;11.80;59.50;;;;;;6279758;28;20112;-71
2022/02/05 09:02:08;;;;;;;6.78;2.40;;;11.80;59.60;;;;;;6259425;28;20036;-70
2022/02/05 09:08:29;;;;;;;4.88;2.70;;;11.80;59.60;;;;;;6253327;28;20390;-72
2022/02/05 09:11:37;;;;;;;5.05;2.40;;;11.80;59.60;;;;;;6227389;28;20078;-71
2022/02/05 09:14:41;;;;;;;4.47;2.45;;;11.80;59.70;;;;;;6250434;28;20021;-71
2022/02/05 09:17:42;;;;;;;5.30;2.47;;;11.80;60.20;;;;;;6240130;28;20121;-72
2022/02/05 09:20:44;;;;;;;5.10;2.10;;;11.80;59.50;;;;;;6234438;28;20033;-71
2022/02/05 09:23:47;;;;;;;3.60;1.75;;;11.90;59.50;;;;;;6226974;28;20291;-71
2022/02/05 09:26:56;;;;;;;8.93;2.05;;;12.00;59.30;;;;;;6258185;28;20029;-68
2022/02/05 09:32:58;;;;;;;1.80;1.10;;;12.00;58.80;;;;;;6251461;28;20025;-69
2022/02/05 09:35:59;;;;;;;1.83;1.05;;;12.00;58.50;;;;;;6252484;28;20100;-69
2022/02/05 09:39:00;;;;;;;1.63;1.20;;;12.10;58.30;;;;;;6229244;28;20512;-69
2022/02/05 09:42:01;;;;;;;1.58;1.10;;;12.10;58.00;;;;;;6228998;28;20141;-70
2022/02/05 09:45:02;;;;;;;1.30;1.10;;;12.20;57.90;;;;;;6240322;28;20358;-70
2022/02/05 09:48:05;;;;;;;2.65;1.23;;;12.20;57.70;;;;;;6250560;28;20067;-71
2022/02/05 09:51:14;;;;;;;2.88;1.42;;;12.30;57.40;;;;;;6254239;28;20553;-71
2022/02/05 09:54:19;;;;;;;2.05;1.40;;;12.20;57.30;;;;;;6234229;28;20025;-70
2022/02/05 09:57:20;;;;;;;7.50;1.75;;;12.20;57.40;;;;;;6251570;28;20366;-71
2022/02/05 10:00:21;;;;;;;4.80;1.88;;;12.30;57.30;;;;;;6250593;28;20036;-69
2022/02/05 10:03:28;;;;;;;3.05;1.52;;;12.30;57.00;;;;;;6258134;28;20059;-70
2022/02/05 10:06:38;;;;;;;3.28;2.20;;;12.30;56.90;;;;;;6278211;28;20024;-70
2022/02/05 10:09:58;;;;;;;20.98;2.25;;;12.30;56.70;;;;;;6277216;28;20405;-70
2022/02/05 10:13:09;;;;;;;3.03;1.65;;;12.30;56.50;;;;;;6278430;28;20466;-70
2022/02/05 10:16:13;;;;;;;2.53;1.42;;;12.30;56.00;;;;;;6276094;28;20024;-71
2022/02/05 10:19:14;;;;;;;1.92;1.20;;;12.30;55.60;;;;;;6279427;28;20289;-71
2022/02/05 10:22:15;;;;;;;2.63;1.40;;;12.20;55.60;;;;;;6275647;28;20032;-69
2022/02/05 10:25:24;;;;;;;2.42;1.20;;;12.20;55.50;;;;;;6277615;28;20037;-69
2022/02/05 10:28:25;;;;;;;3.55;1.65;;;12.40;55.20;;;;;;6256953;28;20495;-70
2022/02/05 10:31:28;;;;;;;3.92;1.40;;;12.40;54.80;;;;;;6277508;28;20017;-68
2022/02/05 10:34:33;;;;;;;4.25;1.42;;;12.60;54.50;;;;;;6275209;28;20465;-71
2022/02/05 10:37:49;;;;;;;5.60;2.05;;;12.70;54.00;;;;;;6273590;28;20052;-69
2022/02/05 10:43:00;;;;;;;4.63;1.67;;;12.80;53.50;;;;;;6263889;28;20032;-69
2022/02/05 10:44:28;;;;;;;4.70;1.52;;;12.80;53.20;;;;;;6272790;28;20028;-69
2022/02/05 10:47:50;;;;;;;2.90;1.63;;;12.80;53.10;;;;;;6276384;28;20029;-70
2022/02/05 10:50:55;;;;;;;1.40;1.27;;;12.80;53.40;;;;;;6276553;28;20059;-70
2022/02/05 10:54:07;;;;;;;3.22;1.50;;;12.90;53.00;;;;;;6272398;28;20410;-70
2022/02/05 10:57:18;;;;;;;2.72;1.33;;;13.00;52.60;;;;;;6275536;28;20017;-70
2022/02/05 11:07:00;;;;;;;3.65;1.65;;;13.20;52.30;;;;;;6148222;28;20054;-69
2022/02/05 11:10:01;;;;;;;3.00;1.70;;;13.30;52.00;;;;;;6159363;28;20118;-69
2022/02/05 11:13:21;;;;;;;6.55;2.05;;;13.40;51.90;;;;;;6158873;28;20489;-68
2022/02/05 11:19:41;;;;;;;2.38;1.35;;;13.60;51.20;;;;;;6160533;28;20676;-69
2022/02/05 11:22:51;;;;;;;5.95;1.60;;;13.60;50.80;;;;;;6144847;28;20034;-71
2022/02/05 11:25:53;;;;;;;3.05;1.40;;;13.70;50.50;;;;;;6145766;28;20119;-71
2022/02/05 11:29:05;;;;;;;3.90;1.70;;;13.60;50.40;;;;;;6159622;28;20113;-71
2022/02/05 11:32:46;;;;;;;2.97;1.63;;;13.80;50.00;;;;;;6131025;28;20027;-71
2022/02/05 11:39:00;;;;;;;5.40;2.15;;;13.80;49.90;;;;;;6102281;29;20449;-70
2022/02/05 11:42:25;;;;;;;2.92;1.77;;;14.10;49.20;;;;;;6140244;28;20170;-70
2022/02/05 11:45:26;;;;;;;7.40;1.85;;;14.20;48.50;;;;;;6203518;28;20048;-72
2022/02/05 11:48:43;;;;;;;8.90;2.58;;;14.20;48.70;;;;;;6209858;28;20034;-69
2022/02/05 11:51:46;;;;;;;2.95;1.80;;;14.40;48.30;;;;;;6207141;28;20152;-69
2022/02/05 11:55:00;;;;;;;2.92;1.55;;;14.50;48.10;;;;;;6201182;28;20025;-71
2022/02/05 11:58:04;;;;;;;3.78;2.08;;;14.50;47.70;;;;;;6203883;28;20113;-70
2022/02/05 12:01:07;;;;;;;3.88;2.00;;;14.60;47.70;;;;;;6186232;28;20112;-70
2022/02/05 12:04:23;;;;;;;5.85;2.63;;;14.80;47.40;;;;;;6182033;28;20046;-70
2022/02/05 12:07:24;;;;;;;2.45;1.65;;;15.20;46.60;;;;;;6178997;28;20029;-71
2022/02/05 12:10:47;;;;;;;5.43;2.30;;;15.70;45.70;;;;;;6193679;28;20140;-69
2022/02/05 12:14:07;;;;;;;2.35;1.55;;;15.90;45.00;;;;;;6275098;28;20080;-72
2022/02/05 12:17:15;;;;;;;7.00;1.70;;;15.70;45.30;;;;;;6256957;28;20508;-71
2022/02/05 12:20:23;;;;;;;;;;;15.60;45.30;;;;;;6278826;28;20152;-70
2022/02/05 12:26:47;;;;;;;6.90;2.20;;;14.80;46.40;;;;;;6277882;28;20029;-72
2022/02/05 12:29:48;;;;;;;3.42;1.83;;;14.40;47.10;;;;;;6280306;28;20592;-72
2022/02/05 12:32:50;;;;;;;3.47;1.85;;;14.20;47.70;;;;;;6279149;28;20025;-72
2022/02/05 12:35:53;;;;;;;4.78;2.17;;;14.00;48.10;;;;;;6251411;28;20468;-69
2022/02/05 12:38:56;;;;;;;6.78;1.92;;;13.80;48.30;;;;;;6261542;28;20098;-69
2022/02/05 12:42:14;;;;;;;4.20;2.00;;;13.60;48.60;;;;;;6250102;28;20029;-71
2022/02/05 12:45:19;;;;;;;2.70;1.70;;;13.40;48.70;;;;;;6258806;28;20049;-70
2022/02/05 12:48:26;;;;;;;3.78;1.98;;;13.10;49.20;;;;;;6260555;28;20074;-69
2022/02/05 12:51:28;;;;;;;12.33;2.13;;;13.00;49.90;;;;;;6279057;28;20678;-69
2022/02/05 12:54:31;;;;;;;6.55;2.08;;;12.90;50.10;;;;;;6259878;28;20104;-70
2022/02/05 12:57:32;;;;;;;3.70;1.70;;;12.80;50.40;;;;;;6281627;28;20044;-69
2022/02/05 13:00:33;;;;;;;2.50;1.70;;;12.70;50.60;;;;;;6278331;28;20021;-68
2022/02/05 13:03:35;;;;;;;2.70;1.92;;;12.60;50.80;;;;;;6267544;28;20091;-69
2022/02/05 13:06:38;;;;;;;6.20;1.45;;;12.50;51.10;;;;;;6278518;28;20036;-69
2022/02/05 13:09:52;;;;;;;2.67;1.55;;;12.40;51.50;;;;;;6273615;28;20034;-70
2022/02/05 13:12:57;;;;;;;5.70;1.88;;;12.30;51.70;;;;;;6278114;28;20017;-70
2022/02/05 13:15:58;;;;;;;3.08;1.95;;;12.30;51.70;;;;;;6276344;28;20028;-69
2022/02/05 13:19:13;;;;;;;3.55;1.90;;;12.30;51.70;;;;;;6264334;28;20116;-69
2022/02/05 13:35:22;;;;;;;10.75;1.90;;;12.30;52.00;;;;;;6276647;28;20033;-70
2022/02/05 13:38:23;;;;;;;2.55;1.50;;;12.30;51.90;;;;;;6277431;28;20024;-69
2022/02/05 13:41:37;;;;;;;7.75;1.73;;;12.30;52.00;;;;;;6278355;28;20624;-69
2022/02/05 13:44:56;;;;;;;3.97;1.63;;;12.20;52.00;;;;;;6262840;28;20025;-69
2022/02/05 13:47:57;;;;;;;4.85;1.30;;;12.20;52.00;;;;;;6277720;28;20045;-69
2022/02/05 13:51:04;;;;;;;2.83;1.45;;;12.20;52.00;;;;;;6279415;28;20044;-70
2022/02/05 13:54:05;;;;;;;1.98;1.38;;;12.10;51.90;;;;;;6277593;28;20060;-70
2022/02/05 13:57:06;;;;;;;2.35;1.27;;;12.20;52.00;;;;;;6259190;28;20070;-72
2022/02/05 14:00:08;;;;;;;4.45;1.67;;;12.10;51.90;;;;;;6260443;28;20036;-70
2022/02/05 14:03:34;;;;;;;4.55;1.33;;;12.10;51.90;;;;;;6274701;28;20045;-72
2022/02/05 14:06:49;;;;;;;2.38;1.58;;;12.20;51.90;;;;;;6274891;28;20028;-69
2022/02/05 14:09:52;;;;;;;1.50;1.27;;;12.20;51.90;;;;;;6254114;28;20037;-70
2022/02/05 14:12:57;;;;;;;3.67;1.50;;;12.20;51.80;;;;;;6258676;28;20060;-69
2022/02/05 14:16:01;;;;;;;2.05;1.50;;;12.20;51.70;;;;;;6259491;28;20036;-69
2022/02/05 14:19:05;;;;;;;2.03;1.35;;;12.30;51.70;;;;;;6258182;28;20029;-71
2022/02/05 14:22:28;;;;;;;1.98;1.38;;;12.40;51.60;;;;;;6262363;28;20048;-69
2022/02/05 14:25:34;;;;;;;12.77;1.30;;;12.40;51.40;;;;;;6274822;28;20533;-71
2022/02/05 14:28:45;;;;;;;2.30;1.23;;;12.40;51.20;;;;;;6274893;28;20116;-70
2022/02/05 14:31:50;;;;;;;4.68;1.33;;;12.40;51.10;;;;;;6274758;28;20483;-69
2022/02/05 14:35:04;;;;;;;4.47;1.40;;;12.40;50.80;;;;;;6260099;28;20024;-71
2022/02/05 14:41:25;;;;;;;2.50;1.30;;;12.50;50.50;;;;;;6274289;28;20049;-70
2022/02/05 14:44:26;;;;;;;1.98;1.15;;;12.50;50.20;;;;;;6246926;28;20068;-69
2022/02/05 14:47:27;;;;;;;2.17;1.33;;;12.60;50.10;;;;;;6269171;28;20032;-70
2022/02/05 14:50:28;;;;;;;1.73;1.30;;;12.60;50.10;;;;;;6256559;28;20051;-69
2022/02/05 14:53:30;;;;;;;2.58;1.25;;;12.60;50.10;;;;;;6257626;28;20578;-70
2022/02/05 14:56:31;;;;;;;5.82;2.00;;;12.70;50.00;;;;;;6257641;28;20548;-70
2022/02/05 14:59:32;;;;;;;2.90;1.52;;;12.70;50.00;;;;;;6276655;28;20108;-70
2022/02/05 15:02:33;;;;;;;1.45;1.15;;;12.70;50.00;;;;;;6272325;28;20139;-72
2022/02/05 15:05:35;;;;;;;4.32;1.55;;;12.70;50.00;;;;;;6255767;28;20028;-70
2022/02/05 15:08:36;;;;;;;1.83;1.13;;;12.70;49.90;;;;;;6257856;28;20443;-69
2022/02/05 15:11:37;;;;;;;3.20;1.35;;;12.70;49.80;;;;;;6256457;28;20025;-71
2022/02/05 15:14:38;;;;;;;2.92;1.42;;;12.70;49.80;;;;;;6255659;28;20458;-71
2022/02/05 15:17:42;;;;;;;11.00;4.65;;;12.70;49.80;;;;;;6256560;28;20688;-70
2022/02/05 15:20:43;;;;;;;3.72;1.40;;;12.70;49.70;;;;;;6257679;28;20017;-71
2022/02/05 15:23:44;;;;;;;3.58;1.50;;;12.70;49.60;;;;;;6273900;28;20028;-70
2022/02/05 15:26:44;;;;;;;3.47;1.58;;;12.70;49.60;;;;;;6257964;28;20075;-71
2022/02/05 15:29:45;;;;;;;2.53;1.33;;;12.70;49.70;;;;;;6255704;28;20498;-71
2022/02/05 15:32:46;;;;;;;2.70;1.45;;;12.70;49.70;;;;;;6277507;28;20366;-72
2022/02/05 15:35:53;;;;;;;2.00;1.40;;;12.70;49.60;;;;;;6274218;28;20031;-71
2022/02/05 15:45:15;;;;;;;2.05;1.35;;;12.70;49.60;;;;;;6276140;28;20032;-70
2022/02/05 15:48:16;;;;;;;6.40;1.17;;;12.60;49.70;;;;;;6278897;28;20633;-70
2022/02/05 15:51:17;;;;;;;1.20;1.08;;;12.60;49.80;;;;;;6245233;28;20093;-71
2022/02/05 15:54:20;;;;;;;2.60;1.30;;;12.50;49.80;;;;;;6277253;28;20070;-71
2022/02/05 15:57:34;;;;;;;3.47;1.30;;;12.50;49.90;;;;;;6282260;28;20340;-70
2022/02/05 16:00:38;;;;;;;2.25;1.50;;;12.50;50.00;;;;;;6266804;28;20028;-71
2022/02/05 16:03:39;;;;;;;2.70;1.02;;;12.40;50.10;;;;;;6278538;28;20040;-71
2022/02/05 16:06:41;;;;;;;3.17;1.23;;;12.40;50.20;;;;;;6278274;28;20044;-71
2022/02/05 16:09:43;;;;;;;4.35;1.60;;;12.40;50.20;;;;;;6260921;28;20107;-69
2022/02/05 16:12:48;;;;;;;2.25;1.10;;;12.40;50.90;;;;;;6260287;28;20251;-70
2022/02/05 16:15:49;;;;;;;4.97;2.00;;;12.40;50.40;;;;;;6279975;28;20086;-68
2022/02/05 16:18:50;;;;;;;2.65;1.20;;;12.40;50.40;;;;;;6249782;28;20120;-69
2022/02/05 16:21:51;;;;;;;3.05;1.75;;;12.30;50.40;;;;;;6280422;28;20044;-71
2022/02/05 16:24:52;;;;;;;5.07;2.05;;;12.30;50.40;;;;;;6280903;28;20016;-70
2022/02/05 16:27:53;;;;;;;2.80;1.73;;;12.30;50.60;;;;;;6277556;28;20831;-72
2022/02/05 16:30:58;;;;;;;4.25;1.55;;;12.20;50.60;;;;;;6281746;28;20107;-72
2022/02/05 16:34:06;;;;;;;2.60;1.38;;;12.20;50.50;;;;;;6262852;28;20036;-71
2022/02/05 16:37:08;;;;;;;6.05;2.08;;;12.20;50.50;;;;;;6255420;28;20031;-71
2022/02/05 16:40:14;;;;;;;2.83;1.33;;;12.20;50.50;;;;;;6280156;28;20017;-72
2022/02/05 16:43:15;;;;;;;6.03;1.25;;;12.10;50.50;;;;;;6264015;28;20032;-70
2022/02/05 16:46:22;;;;;;;4.97;1.63;;;12.10;50.50;;;;;;6249290;28;20053;-72
2022/02/05 16:49:25;;;;;;;6.18;1.55;;;12.10;50.40;;;;;;6247070;28;20362;-70
2022/02/05 16:52:28;;;;;;;3.33;1.35;;;12.10;50.40;;;;;;6259365;28;20033;-71
2022/02/05 16:55:30;;;;;;;3.80;1.55;;;12.10;50.30;;;;;;6261598;28;20028;-70
2022/02/05 16:58:32;;;;;;;6.45;1.73;;;12.00;50.20;;;;;;6279771;28;20025;-72
2022/02/05 17:01:33;;;;;;;2.88;1.30;;;12.00;50.30;;;;;;6259714;28;20051;-70
2022/02/05 17:04:34;;;;;;;2.67;1.30;;;12.00;50.30;;;;;;6275203;28;20659;-72
2022/02/05 17:07:35;;;;;;;5.47;1.02;;;12.00;50.40;;;;;;6275754;28;20029;-73
2022/02/05 17:10:36;;;;;;;3.78;1.58;;;12.00;50.30;;;;;;6277124;28;20350;-71
2022/02/05 17:13:40;;;;;;;4.32;1.63;;;11.90;50.10;;;;;;6274149;28;20029;-70
2022/02/05 17:16:44;;;;;;;3.10;1.58;;;12.00;50.20;;;;;;6279679;28;20060;-73
2022/02/05 17:19:52;;;;;;;6.43;1.75;;;12.00;50.10;;;;;;6282001;28;20028;-74
2022/02/05 17:22:55;;;;;;;4.43;1.70;;;12.00;50.00;;;;;;6274601;28;20616;-71
2022/02/05 17:25:58;;;;;;;7.30;1.50;;;11.90;50.00;;;;;;6276716;28;20278;-71
2022/02/05 17:28:59;;;;;;;4.50;1.63;;;11.90;49.90;;;;;;6276548;28;20025;-72
2022/02/05 17:32:04;;;;;;;7.72;1.65;;;11.90;50.00;;;;;;6279581;28;20114;-72
2022/02/05 17:35:05;;;;;;;5.28;1.33;;;11.90;50.10;;;;;;6273244;28;20033;-72
2022/02/05 17:38:06;;;;;;;2.45;1.30;;;11.90;50.00;;;;;;6279676;28;20021;-72
2022/02/05 17:41:07;;;;;;;3.35;1.77;;;11.90;50.00;;;;;;6278324;28;20472;-72
2022/02/05 17:44:08;;;;;;;5.28;1.60;;;11.90;50.10;;;;;;6275686;28;20470;-71
2022/02/05 17:47:09;;;;;;;4.20;2.22;;;11.90;50.10;;;;;;6275987;28;20040;-71
2022/02/05 17:50:11;;;;;;;3.35;1.70;;;11.80;50.20;;;;;;6256659;28;20021;-72
2022/02/05 17:53:12;;;;;;;3.38;1.35;;;11.80;50.20;;;;;;6277178;28;20111;-74
2022/02/05 17:56:13;;;;;;;2.85;1.80;;;11.80;50.10;;;;;;6276268;28;20086;-72
2022/02/05 17:59:16;;;;;;;3.63;1.70;;;11.80;50.10;;;;;;6273758;28;20250;-73
2022/02/05 18:02:20;;;;;;;3.58;1.40;;;11.80;50.10;;;;;;6274408;28;20129;-73
2022/02/05 18:05:26;;;;;;;3.63;1.88;;;11.70;50.10;;;;;;6258002;28;20060;-72
2022/02/05 18:08:32;;;;;;;3.70;1.42;;;11.70;50.20;;;;;;6236841;28;20033;-74
2022/02/05 18:11:35;;;;;;;6.55;1.90;;;11.70;50.30;;;;;;6245119;28;20132;-72
2022/02/05 18:17:38;;;;;;;3.17;2.05;;;11.60;50.70;;;;;;6257204;28;20050;-71
2022/02/05 18:20:39;;;;;;;6.38;2.58;;;11.50;50.90;;;;;;6277009;28;20048;-72
2022/02/05 18:23:42;;;;;;;3.88;1.73;;;11.50;51.00;;;;;;6259221;28;20150;-72
2022/02/05 18:26:43;;;;;;;4.63;1.60;;;11.40;50.90;;;;;;6275786;28;20480;-72
2022/02/05 18:29:44;;;;;;;2.90;1.50;;;11.40;50.80;;;;;;6275726;28;20094;-72
2022/02/05 18:32:45;;;;;;;6.75;2.00;;;11.40;50.60;;;;;;6258274;28;20029;-72
2022/02/05 18:35:46;;;;;;;9.25;4.10;;;11.40;50.40;;;;;;6258989;28;20021;-72
2022/02/05 18:38:47;;;;;;;7.57;2.08;;;11.40;50.20;;;;;;6276253;28;20028;-72
2022/02/05 18:41:47;;;;;;;5.60;1.75;;;11.40;50.10;;;;;;6276450;28;20091;-73
2022/02/05 18:44:49;;;;;;;8.23;2.42;;;11.50;50.00;;;;;;6260450;28;20058;-72
2022/02/05 18:47:50;;;;;;;4.25;1.70;;;11.40;49.80;;;;;;6277778;28;20379;-72
2022/02/05 18:50:51;;;;;;;4.45;2.47;;;11.40;49.70;;;;;;6255512;28;20068;-74
2022/02/05 18:53:53;;;;;;;9.05;1.80;;;11.40;49.70;;;;;;6262109;28;20531;-72
2022/02/05 18:56:56;;;;;;;12.55;2.28;;;11.40;49.70;;;;;;6270496;28;20028;-72
2022/02/05 19:00:05;;;;;;;7.30;2.10;;;11.30;49.50;;;;;;6277133;28;20032;-72
2022/02/05 19:12:51;;;;;;;5.63;1.88;;;11.20;49.20;;;;;;6274925;28;20044;-73